createdAt,value
2023-02-15T00:01:34.468Z,22.33
2023-02-15T00:04:02.392Z,23.03
2023-02-15T00:06:30.621Z,22.43
2023-02-15T00:08:58.414Z,23.00
2023-02-15T00:11:40.517Z,19.60
2023-02-15T00:14:11.461Z,23.17
2023-02-15T00:16:39.934Z,22.77
2023-02-15T00:19:07.751Z,23.33
2023-02-15T00:21:36.560Z,24.13
2023-02-15T00:24:05.183Z,22.93
2023-02-15T00:26:33.264Z,24.53
2023-02-15T00:29:01.083Z,25.63
2023-02-15T00:31:32.976Z,24.97
2023-02-15T00:34:03.640Z,23.77
2023-02-15T00:36:31.400Z,23.23
2023-02-15T00:38:59.332Z,25.10
2023-02-15T00:41:27.120Z,25.30
2023-02-15T00:43:54.880Z,24.60
2023-02-15T00:46:22.903Z,23.60
2023-02-15T00:48:52.595Z,24.53
2023-02-15T00:51:21.371Z,23.90
2023-02-15T00:53:49.177Z,23.40
2023-02-15T00:56:17.449Z,23.60
2023-02-15T00:58:45.188Z,22.57
2023-02-15T01:01:14.195Z,22.77
2023-02-15T01:03:42.731Z,21.33
2023-02-15T01:06:12.317Z,22.50
2023-02-15T01:08:41.747Z,23.43
2023-02-15T01:11:11.361Z,23.20
2023-02-15T01:13:39.150Z,24.13
2023-02-15T01:16:06.983Z,22.63
2023-02-15T01:18:35.002Z,23.90
2023-02-15T01:21:10.484Z,23.93
2023-02-15T01:23:39.535Z,22.43
2023-02-15T01:26:07.192Z,20.77
2023-02-15T01:28:35.074Z,22.13
2023-02-15T01:31:06.810Z,19.90
2023-02-15T01:33:35.139Z,23.27
2023-02-15T01:36:03.639Z,22.00
2023-02-15T01:38:31.750Z,22.50
2023-02-15T01:41:21.296Z,22.50
2023-02-15T01:43:50.149Z,22.50
2023-02-15T01:46:18.931Z,23.00
2023-02-15T01:48:49.028Z,21.77
2023-02-15T01:51:20.077Z,22.23
2023-02-15T01:56:22.198Z,19.83
2023-02-15T01:58:50.709Z,21.13
2023-02-15T02:01:18.655Z,24.03
2023-02-15T02:03:51.434Z,21.50
2023-02-15T02:06:19.572Z,20.53
2023-02-15T02:08:47.877Z,22.03
2023-02-15T02:11:17.015Z,22.03
2023-02-15T02:13:47.029Z,20.80
2023-02-15T02:16:18.637Z,23.03
2023-02-15T02:18:50.121Z,21.37
2023-02-15T02:21:38.492Z,22.17
2023-02-15T02:24:27.048Z,20.97
2023-02-15T02:27:11.379Z,21.30
2023-02-15T02:29:51.285Z,21.87
2023-02-15T02:32:33.888Z,21.73
2023-02-15T02:35:07.759Z,22.67
2023-02-15T02:37:39.272Z,22.23
2023-02-15T02:40:12.098Z,21.87
2023-02-15T02:42:41.367Z,21.03
2023-02-15T02:45:10.790Z,19.83
2023-02-15T02:47:40.937Z,20.73
2023-02-15T02:50:11.576Z,20.47
2023-02-15T02:52:41.147Z,21.60
2023-02-15T02:55:11.140Z,21.07
2023-02-15T02:57:39.972Z,21.63
2023-02-15T03:00:10.043Z,19.53
2023-02-15T03:02:39.379Z,19.20
2023-02-15T03:05:10.025Z,20.03
2023-02-15T03:07:39.400Z,19.87
2023-02-15T03:10:08.611Z,19.17
2023-02-15T03:12:38.231Z,20.90
2023-02-15T03:15:07.963Z,20.53
2023-02-15T03:17:36.505Z,21.33
2023-02-15T03:20:06.520Z,22.93
2023-02-15T03:22:39.076Z,19.80
2023-02-15T03:25:12.879Z,19.87
2023-02-15T03:27:42.229Z,19.53
2023-02-15T03:30:11.721Z,21.17
2023-02-15T03:32:40.207Z,21.97
2023-02-15T03:35:08.618Z,19.70
2023-02-15T03:37:38.796Z,19.80
2023-02-15T03:40:24.036Z,21.30
2023-02-15T03:42:55.753Z,20.50
2023-02-15T03:45:27.024Z,20.03
2023-02-15T03:47:56.822Z,18.97
2023-02-15T03:50:44.600Z,18.33
2023-02-15T03:53:14.210Z,21.63
2023-02-15T03:55:42.015Z,19.90
2023-02-15T03:58:28.405Z,19.83
2023-02-15T04:01:17.143Z,17.67
2023-02-15T04:03:47.466Z,19.80
2023-02-15T04:06:15.131Z,20.13
2023-02-15T04:09:00.913Z,19.90
2023-02-15T04:11:28.695Z,18.60
2023-02-15T04:14:00.730Z,19.67
2023-02-15T04:16:31.083Z,19.27
2023-02-15T04:19:16.456Z,19.87
2023-02-15T04:22:01.522Z,18.70
2023-02-15T04:24:46.681Z,18.73
2023-02-15T04:27:15.710Z,16.63
2023-02-15T04:29:44.923Z,17.33
2023-02-15T04:32:12.680Z,19.10
2023-02-15T04:34:40.437Z,18.97
2023-02-15T04:37:08.218Z,18.40
2023-02-15T04:39:35.934Z,18.83
2023-02-15T04:42:03.906Z,19.77
2023-02-15T04:44:31.821Z,17.97
2023-02-15T04:47:01.023Z,18.53
2023-02-15T04:49:29.381Z,19.50
2023-02-15T04:51:57.242Z,18.10
2023-02-15T04:54:25.026Z,19.83
2023-02-15T04:56:53.519Z,18.90
2023-02-15T04:59:21.243Z,19.13
2023-02-15T05:01:49.048Z,18.23
2023-02-15T05:04:18.438Z,19.63
2023-02-15T05:06:46.314Z,18.67
2023-02-15T05:09:14.738Z,18.63
2023-02-15T05:11:42.447Z,19.53
2023-02-15T05:14:10.718Z,20.07
2023-02-15T05:16:38.658Z,19.37
2023-02-15T05:19:07.560Z,19.87
2023-02-15T05:21:36.788Z,19.83
2023-02-15T05:24:24.680Z,20.33
2023-02-15T05:27:09.750Z,19.57
2023-02-15T05:29:37.776Z,19.53
2023-02-15T05:32:06.416Z,19.10
2023-02-15T05:34:34.082Z,17.50
2023-02-15T05:37:04.782Z,21.40
2023-02-15T05:39:32.481Z,19.33
2023-02-15T05:42:00.922Z,19.77
2023-02-15T05:44:28.959Z,18.83
2023-02-15T05:46:56.845Z,17.73
2023-02-15T05:49:24.547Z,20.50
2023-02-15T05:51:52.363Z,18.90
2023-02-15T05:54:21.452Z,19.07
2023-02-15T05:56:49.100Z,17.90
2023-02-15T05:59:17.264Z,20.40
2023-02-15T06:01:45.849Z,19.07
2023-02-15T06:04:14.543Z,19.40
2023-02-15T06:06:42.707Z,18.93
2023-02-15T06:09:10.934Z,19.03
2023-02-15T06:11:40.378Z,17.83
2023-02-15T06:14:08.224Z,17.00
2023-02-15T06:16:36.541Z,15.83
2023-02-15T06:19:04.718Z,19.23
2023-02-15T06:21:32.889Z,18.17
2023-02-15T06:24:00.669Z,18.23
2023-02-15T06:26:28.619Z,18.70
2023-02-15T06:28:57.904Z,19.03
2023-02-15T06:31:25.749Z,16.67
2023-02-15T06:33:53.622Z,18.23
2023-02-15T06:36:22.513Z,18.20
2023-02-15T06:38:50.433Z,18.40
2023-02-15T06:41:18.124Z,17.93
2023-02-15T06:43:45.988Z,17.83
2023-02-15T06:46:15.740Z,18.33
2023-02-15T06:48:43.528Z,17.13
2023-02-15T06:51:11.571Z,16.93
2023-02-15T06:53:39.340Z,17.50
2023-02-15T06:56:10.192Z,17.30
2023-02-15T06:58:38.535Z,18.27
2023-02-15T07:01:06.665Z,17.73
2023-02-15T07:03:38.122Z,17.53
2023-02-15T07:06:09.411Z,18.23
2023-02-15T07:08:37.856Z,16.67
2023-02-15T07:11:19.558Z,15.97
2023-02-15T07:13:47.670Z,18.23
2023-02-15T07:16:18.576Z,17.87
2023-02-15T07:18:47.660Z,17.60
2023-02-15T07:21:15.354Z,17.47
2023-02-15T07:23:43.253Z,15.93
2023-02-15T07:26:11.077Z,15.63
2023-02-15T07:28:38.762Z,17.40
2023-02-15T07:31:07.264Z,15.37
2023-02-15T07:33:35.365Z,16.77
2023-02-15T07:36:05.276Z,16.13
2023-02-15T07:38:34.459Z,15.80
2023-02-15T07:41:05.210Z,15.10
2023-02-15T07:43:35.076Z,15.33
2023-02-15T07:46:03.920Z,16.07
2023-02-15T07:48:32.092Z,15.30
2023-02-15T07:51:01.259Z,15.33
2023-02-15T07:53:30.630Z,16.23
2023-02-15T07:56:01.181Z,16.03
2023-02-15T07:58:51.788Z,16.63
2023-02-15T08:01:20.203Z,16.83
2023-02-15T08:03:48.666Z,15.93
2023-02-15T08:06:17.028Z,13.77
2023-02-15T08:08:46.572Z,13.33
2023-02-15T08:11:37.699Z,15.80
2023-02-15T08:14:07.580Z,13.67
2023-02-15T08:16:36.621Z,14.23
2023-02-15T08:19:05.565Z,16.03
2023-02-15T08:21:34.229Z,13.40
2023-02-15T08:24:03.641Z,12.07
2023-02-15T08:26:32.219Z,15.33
2023-02-15T08:29:01.076Z,11.07
2023-02-15T08:31:29.450Z,14.93
2023-02-15T08:33:58.347Z,14.63
2023-02-15T08:36:27.258Z,13.73
2023-02-15T08:38:55.155Z,9.30
2023-02-15T08:41:25.288Z,12.90
2023-02-15T08:43:54.682Z,14.77
2023-02-15T08:46:23.345Z,12.53
2023-02-15T08:48:52.410Z,15.50
2023-02-15T08:51:22.874Z,16.97
2023-02-15T08:53:51.303Z,15.33
2023-02-15T08:56:21.533Z,14.13
2023-02-15T08:58:53.076Z,15.27
2023-02-15T09:01:23.714Z,13.93
2023-02-15T09:03:54.044Z,15.43
2023-02-15T09:06:22.210Z,12.63
2023-02-15T09:08:51.677Z,11.80
2023-02-15T09:11:23.871Z,12.13
2023-02-15T09:13:54.410Z,13.40
2023-02-15T09:16:23.309Z,14.83
2023-02-15T09:18:51.688Z,11.23
2023-02-15T09:21:21.818Z,14.17
2023-02-15T09:23:50.816Z,12.10
2023-02-15T09:26:22.118Z,13.33
2023-02-15T09:28:53.477Z,12.63
2023-02-15T09:31:23.599Z,12.87
2023-02-15T09:33:51.821Z,13.53
2023-02-15T09:36:20.596Z,12.73
2023-02-15T09:38:50.336Z,14.30
2023-02-15T09:41:26.870Z,13.43
2023-02-15T09:43:59.662Z,13.20
2023-02-15T09:46:36.512Z,13.30
2023-02-15T09:49:08.300Z,14.07
2023-02-15T09:51:51.067Z,14.13
2023-02-15T09:54:25.506Z,12.63
2023-02-15T09:56:55.726Z,12.43
2023-02-15T09:59:29.541Z,14.03
2023-02-15T10:02:05.936Z,14.27
2023-02-15T10:04:43.422Z,12.87
2023-02-15T10:07:18.649Z,12.30
2023-02-15T10:09:55.240Z,11.20
2023-02-15T10:12:32.328Z,13.83
2023-02-15T10:15:13.405Z,12.73
2023-02-15T10:17:52.400Z,15.73
2023-02-15T10:20:25.900Z,16.07
2023-02-15T10:22:59.843Z,15.70
2023-02-15T10:25:34.755Z,14.90
2023-02-15T10:28:08.112Z,14.57
2023-02-15T10:30:41.429Z,15.03
2023-02-15T10:33:14.158Z,13.90
2023-02-15T10:35:47.632Z,15.20
2023-02-15T10:38:21.669Z,14.37
2023-02-15T10:40:57.821Z,13.50
2023-02-15T10:43:32.415Z,11.43
2023-02-15T10:46:04.554Z,10.13
2023-02-15T10:48:47.353Z,13.83
2023-02-15T10:51:19.895Z,15.70
2023-02-15T10:54:03.568Z,17.23
2023-02-15T10:56:35.324Z,15.27
2023-02-15T10:59:13.578Z,15.37
2023-02-15T11:01:46.291Z,15.03
2023-02-15T11:04:29.930Z,14.17
2023-02-15T11:07:02.022Z,15.83
2023-02-15T11:09:35.629Z,14.73
2023-02-15T11:12:03.491Z,14.27
2023-02-15T11:14:36.600Z,14.60
2023-02-15T11:17:06.848Z,12.07
2023-02-15T11:19:36.783Z,14.50
2023-02-15T11:22:09.700Z,16.23
2023-02-15T11:24:43.637Z,16.70
2023-02-15T11:27:21.410Z,18.80
2023-02-15T11:29:54.450Z,15.97
2023-02-15T11:32:24.132Z,14.60
2023-02-15T11:34:54.247Z,15.13
2023-02-15T11:37:33.400Z,15.50
2023-02-15T11:40:02.608Z,14.43
2023-02-15T11:42:32.538Z,14.60
2023-02-15T11:45:03.158Z,16.77
2023-02-15T11:47:34.467Z,15.00
2023-02-15T11:50:02.307Z,16.30
2023-02-15T11:52:31.493Z,12.30
2023-02-15T11:54:59.203Z,12.40
2023-02-15T11:57:30.712Z,15.43
2023-02-15T12:00:00.064Z,15.00
2023-02-15T12:02:31.168Z,14.97
2023-02-15T12:05:00.417Z,14.07
2023-02-15T12:07:29.554Z,16.17
2023-02-15T12:10:02.862Z,14.73
2023-02-15T12:12:31.684Z,15.43
2023-02-15T12:15:00.519Z,13.60
2023-02-15T12:17:29.813Z,15.53
2023-02-15T12:19:58.788Z,16.23
2023-02-15T12:22:27.818Z,15.33
2023-02-15T12:24:57.796Z,14.67
2023-02-15T12:27:28.720Z,15.90
2023-02-15T12:29:59.482Z,15.50
2023-02-15T12:32:28.566Z,16.87
2023-02-15T12:35:01.297Z,15.63
2023-02-15T12:37:32.592Z,17.53
2023-02-15T12:40:01.076Z,15.67
2023-02-15T12:42:43.299Z,15.03
2023-02-15T12:45:22.989Z,17.10
2023-02-15T12:48:10.351Z,16.37
2023-02-15T12:50:38.395Z,15.17
2023-02-15T12:53:10.699Z,14.53
2023-02-15T12:55:45.378Z,15.67
2023-02-15T12:58:19.016Z,15.90
2023-02-15T13:00:47.078Z,16.67
2023-02-15T13:03:18.944Z,18.27
2023-02-15T13:05:48.065Z,18.57
2023-02-15T13:08:18.138Z,17.83
2023-02-15T13:10:57.029Z,15.10
2023-02-15T13:13:28.056Z,15.60
2023-02-15T13:16:01.006Z,17.03
2023-02-15T13:18:32.940Z,16.47
2023-02-15T13:21:04.369Z,17.40
2023-02-15T13:23:36.399Z,14.43
2023-02-15T13:26:06.736Z,14.07
2023-02-15T13:28:40.955Z,13.37
2023-02-15T13:31:14.082Z,16.07
2023-02-15T13:33:46.511Z,15.47
2023-02-15T13:36:19.351Z,15.03
2023-02-15T13:38:53.874Z,16.20
2023-02-15T13:41:24.962Z,15.30
2023-02-15T13:43:59.021Z,16.40
2023-02-15T13:46:36.172Z,14.87
2023-02-15T13:49:11.671Z,14.47
2023-02-15T13:51:42.907Z,15.87
2023-02-15T13:54:31.211Z,15.37
2023-02-15T13:57:09.467Z,15.80
2023-02-15T13:59:46.022Z,14.77
2023-02-15T14:02:31.348Z,14.60
2023-02-15T14:05:09.737Z,15.17
2023-02-15T14:07:48.436Z,15.77
2023-02-15T14:10:27.311Z,11.47
2023-02-15T14:13:03.503Z,16.77
2023-02-15T14:15:37.746Z,12.60
2023-02-15T14:18:12.261Z,15.57
2023-02-15T14:20:47.844Z,15.23
2023-02-15T14:23:20.847Z,16.77
2023-02-15T14:25:52.188Z,15.20
2023-02-15T14:28:24.611Z,14.93
2023-02-15T14:30:54.420Z,15.43
2023-02-15T14:33:33.216Z,16.47
2023-02-15T14:36:03.079Z,16.53
2023-02-15T14:38:39.821Z,17.27
2023-02-15T14:41:10.776Z,14.70
2023-02-15T14:43:51.121Z,17.50
2023-02-15T14:46:26.193Z,17.83
2023-02-15T14:48:55.847Z,16.93
2023-02-15T14:51:43.803Z,17.57
2023-02-15T14:54:12.219Z,19.27
2023-02-15T14:56:40.937Z,19.83
2023-02-15T14:59:26.570Z,17.13
2023-02-15T15:02:00.472Z,20.10
2023-02-15T15:04:33.280Z,18.70
2023-02-15T15:07:08.104Z,17.13
2023-02-15T15:09:36.958Z,16.87
2023-02-15T15:12:22.952Z,18.63
2023-02-15T15:14:51.234Z,17.63
2023-02-15T15:17:33.971Z,18.03
2023-02-15T15:20:03.956Z,16.47
2023-02-15T15:22:31.926Z,16.83
2023-02-15T15:25:00.261Z,15.50
2023-02-15T15:27:41.245Z,16.80
2023-02-15T15:30:23.903Z,15.17
2023-02-15T15:32:55.806Z,17.17
2023-02-15T15:35:28.201Z,18.10
2023-02-15T15:38:15.306Z,17.67
2023-02-15T15:40:44.391Z,17.53
2023-02-15T15:43:29.215Z,17.13
2023-02-15T15:46:07.828Z,15.80
2023-02-15T15:48:38.075Z,16.97
2023-02-15T15:51:11.929Z,18.87
2023-02-15T15:53:43.414Z,18.53
2023-02-15T15:56:14.235Z,18.70
2023-02-15T15:58:44.832Z,18.77
2023-02-15T16:01:15.224Z,19.37
2023-02-15T16:03:51.020Z,19.03
2023-02-15T16:06:29.696Z,18.10
2023-02-15T16:08:57.864Z,19.27
2023-02-15T16:11:26.824Z,18.33
2023-02-15T16:13:56.123Z,19.63
2023-02-15T16:16:25.545Z,17.90
2023-02-15T16:18:54.236Z,20.03
2023-02-15T16:21:23.761Z,20.07
2023-02-15T16:24:06.890Z,19.87
2023-02-15T16:26:43.043Z,19.17
2023-02-15T16:29:16.068Z,18.57
2023-02-15T16:31:44.111Z,20.83
2023-02-15T16:34:13.569Z,19.67
2023-02-15T16:36:41.398Z,20.57
2023-02-15T16:39:12.924Z,20.60
2023-02-15T16:41:47.041Z,19.53
2023-02-15T16:44:17.352Z,21.73
2023-02-15T16:46:49.073Z,21.63
2023-02-15T16:49:18.833Z,21.93
2023-02-15T16:51:47.216Z,23.03
2023-02-15T16:54:19.203Z,22.03
2023-02-15T16:56:48.404Z,23.10
2023-02-15T16:59:23.640Z,22.37
2023-02-15T17:01:53.037Z,21.17
2023-02-15T17:04:28.438Z,20.03
2023-02-15T17:07:05.402Z,21.07
2023-02-15T17:09:33.156Z,21.10
2023-02-15T17:12:03.374Z,20.57
2023-02-15T17:14:32.388Z,20.43
2023-02-15T17:17:07.522Z,21.90
2023-02-15T17:19:42.645Z,21.93
2023-02-15T17:22:26.680Z,21.37
2023-02-15T17:25:00.566Z,21.17
2023-02-15T17:27:32.378Z,19.80
2023-02-15T17:30:01.270Z,19.93
2023-02-15T17:32:30.849Z,22.30
2023-02-15T17:35:09.339Z,20.73
2023-02-15T17:37:45.058Z,20.63
2023-02-15T17:40:20.228Z,20.30
2023-02-15T17:42:51.684Z,22.73
2023-02-15T17:45:19.604Z,21.47
2023-02-15T17:47:48.455Z,22.50
2023-02-15T17:50:19.921Z,21.83
2023-02-15T17:52:47.974Z,21.47
2023-02-15T17:55:35.020Z,20.77
2023-02-15T17:58:05.391Z,21.80
2023-02-15T18:00:51.505Z,22.30
2023-02-15T18:03:36.968Z,21.50
2023-02-15T18:06:22.371Z,22.27
2023-02-15T18:09:07.680Z,24.93
2023-02-15T18:11:37.063Z,24.70
2023-02-15T18:14:07.176Z,19.70
2023-02-15T18:16:36.212Z,20.87
2023-02-15T18:19:05.470Z,20.70
2023-02-15T18:21:33.603Z,20.70
2023-02-15T18:24:01.512Z,21.80
2023-02-15T18:26:29.944Z,22.23
2023-02-15T18:28:57.660Z,22.30
2023-02-15T18:31:27.057Z,20.40
2023-02-15T18:33:55.820Z,22.60
2023-02-15T18:36:25.277Z,21.97
2023-02-15T18:38:54.286Z,21.47
2023-02-15T18:41:22.932Z,20.50
2023-02-15T18:43:51.584Z,21.60
2023-02-15T18:46:20.391Z,20.53
2023-02-15T18:48:50.174Z,20.43
2023-02-15T18:51:19.497Z,20.93
2023-02-15T18:53:48.266Z,21.07
2023-02-15T18:56:17.687Z,20.90
2023-02-15T18:58:47.721Z,21.10
2023-02-15T19:01:17.146Z,20.80
2023-02-15T19:03:47.254Z,21.17
2023-02-15T19:06:18.314Z,21.60
2023-02-15T19:08:48.907Z,23.13
2023-02-15T19:11:18.719Z,21.17
2023-02-15T19:13:47.502Z,21.70
2023-02-15T19:16:28.610Z,23.50
2023-02-15T19:18:58.770Z,23.70
2023-02-15T19:21:28.225Z,24.57
2023-02-15T19:23:57.294Z,22.23
2023-02-15T19:26:39.673Z,23.13
2023-02-15T19:29:13.467Z,23.77
2023-02-15T19:31:41.309Z,24.13
2023-02-15T19:34:14.372Z,24.00
2023-02-15T19:36:43.930Z,26.10
2023-02-15T19:39:19.991Z,27.83
2023-02-15T19:41:48.289Z,27.30
2023-02-15T19:44:16.698Z,28.73
2023-02-15T19:46:44.566Z,28.07
2023-02-15T19:49:12.594Z,29.73
2023-02-15T19:51:41.175Z,29.97
2023-02-15T19:54:18.899Z,29.83
2023-02-15T19:56:46.770Z,37.97
2023-02-15T19:59:22.762Z,33.47
2023-02-15T20:01:50.508Z,31.80
2023-02-15T20:04:18.832Z,31.93
2023-02-15T20:06:47.383Z,31.37
2023-02-15T20:09:20.666Z,31.50
2023-02-15T20:11:49.301Z,32.83
2023-02-15T20:14:17.262Z,37.73
2023-02-15T20:16:44.885Z,39.13
2023-02-15T20:19:13.213Z,40.10
2023-02-15T20:21:42.037Z,39.27
2023-02-15T20:24:14.698Z,43.17
2023-02-15T20:26:43.834Z,42.37
2023-02-15T20:29:13.904Z,43.10
2023-02-15T20:31:41.817Z,40.80
2023-02-15T20:34:09.890Z,41.67
2023-02-15T20:36:38.268Z,42.20
2023-02-15T20:39:13.218Z,41.93
2023-02-15T20:41:46.968Z,38.60
2023-02-15T20:44:20.649Z,39.50
2023-02-15T20:46:50.970Z,38.67
2023-02-15T20:49:19.306Z,39.80
2023-02-15T20:51:48.331Z,40.27
2023-02-15T20:54:17.656Z,39.73
2023-02-15T20:56:45.660Z,39.20
2023-02-15T20:59:20.437Z,39.73
2023-02-15T21:01:50.068Z,39.23
2023-02-15T21:04:18.858Z,40.63
2023-02-15T21:06:46.938Z,38.07
2023-02-15T21:09:15.703Z,42.23
2023-02-15T21:11:44.156Z,41.20
2023-02-15T21:14:19.543Z,42.60
2023-02-15T21:16:47.460Z,42.20
2023-02-15T21:19:17.557Z,44.17
2023-02-15T21:21:46.038Z,41.17
2023-02-15T21:24:15.604Z,47.90
2023-02-15T21:26:44.948Z,41.27
2023-02-15T21:29:15.941Z,47.40
2023-02-15T21:31:43.728Z,44.30
2023-02-15T21:34:11.914Z,47.37
2023-02-15T21:36:41.606Z,46.43
2023-02-15T21:39:15.436Z,46.00
2023-02-15T21:42:01.152Z,39.93
2023-02-15T21:44:46.009Z,41.47
2023-02-15T21:47:36.405Z,39.87
2023-02-15T21:50:24.660Z,37.63
2023-02-15T21:52:53.424Z,41.87
2023-02-15T21:55:21.201Z,42.10
2023-02-15T21:57:49.088Z,38.57
2023-02-15T22:00:18.299Z,37.73
2023-02-15T22:02:46.941Z,41.93
2023-02-15T22:05:15.993Z,39.70
2023-02-15T22:07:43.972Z,40.00
2023-02-15T22:10:13.584Z,40.33
2023-02-15T22:12:44.657Z,39.87
2023-02-15T22:15:19.318Z,38.80
2023-02-15T22:17:47.481Z,41.20
2023-02-15T22:20:16.388Z,38.93
2023-02-15T22:22:44.841Z,36.97
2023-02-15T22:25:16.552Z,32.40
2023-02-15T22:27:45.291Z,37.70
2023-02-15T22:30:21.524Z,32.70
2023-02-15T22:32:49.327Z,31.77
2023-02-15T22:35:18.094Z,27.70
2023-02-15T22:37:45.879Z,26.43
2023-02-15T22:40:17.009Z,29.00
2023-02-15T22:42:47.544Z,27.63
2023-02-15T22:45:17.968Z,27.50
2023-02-15T22:47:47.141Z,27.40
2023-02-15T22:50:16.726Z,24.43
2023-02-15T22:52:44.648Z,29.47
2023-02-15T22:55:17.115Z,26.40
2023-02-15T22:57:46.993Z,27.37
2023-02-15T23:00:17.211Z,27.37
2023-02-15T23:02:45.953Z,27.00
2023-02-15T23:05:20.802Z,25.07
2023-02-15T23:07:49.158Z,25.10
2023-02-15T23:10:25.248Z,23.43
2023-02-15T23:13:12.065Z,22.83
2023-02-15T23:15:40.572Z,22.00
2023-02-15T23:18:16.916Z,19.23
2023-02-15T23:20:45.124Z,21.43
2023-02-15T23:23:13.541Z,21.83
2023-02-15T23:25:43.157Z,24.03
2023-02-15T23:28:19.342Z,25.60
2023-02-15T23:30:47.381Z,36.43
2023-02-15T23:33:15.446Z,29.83
2023-02-15T23:35:43.156Z,21.50
2023-02-15T23:38:19.370Z,30.43
2023-02-15T23:41:07.828Z,32.37
2023-02-15T23:43:35.717Z,34.37
2023-02-15T23:46:03.529Z,35.00
2023-02-15T23:48:34.793Z,33.57
2023-02-15T23:51:03.778Z,34.10
2023-02-15T23:53:32.238Z,31.43
2023-02-15T23:56:01.812Z,39.93
2023-02-15T23:58:35.485Z,38.20
